Indus, Minnesota
Current Conditions -  °F | °C
As of 7:53 AM on Monday 20 Oct 2014 (Local Time) from KBDE Reporting Station
Overcast Overcast  
Wind Chill: 39°   Ceiling: 800
Heat Index: 44°   Visibility: 10mi
Dew Point: 41°   Wind: 10mph
Humidity: 89%   Direction: 340°NNW
Pressure: 29.99"   Gusts: NA
Location:  48.6069°N, 94.172°W
Report Text: KBDE 201253Z AUTO 34009KT 10SM BKN008 OVC027 07/05 A2999 RMK AO2 SLP163 T00670050 TSNO $
Loading
Personal Weather Stations






























Interactive Weather Map
Tropical Storm Tracking
New forecast layout! Learn more

10-Day Weather Forecast

Advertisements
Track Severe Weather on mobile